createdAt,value
2022-12-01T00:02:27.354Z,11.93
2022-12-01T00:04:55.654Z,11.63
2022-12-01T00:07:23.611Z,11.37
2022-12-01T00:10:09.173Z,11.93
2022-12-01T00:12:43.581Z,11.03
2022-12-01T00:15:11.881Z,10.23
2022-12-01T00:17:39.946Z,10.40
2022-12-01T00:20:08.927Z,10.53
2022-12-01T00:22:36.914Z,9.00
2022-12-01T00:25:05.439Z,10.03
2022-12-01T00:27:33.461Z,9.97
2022-12-01T00:30:02.850Z,11.67
2022-12-01T00:32:31.185Z,9.93
2022-12-01T00:34:59.122Z,10.57
2022-12-01T00:37:27.096Z,9.97
2022-12-01T00:39:55.071Z,9.43
2022-12-01T00:42:23.062Z,10.17
2022-12-01T00:44:50.993Z,10.63
2022-12-01T00:47:20.588Z,10.73
2022-12-01T00:49:48.746Z,9.50
2022-12-01T00:52:17.512Z,9.43
2022-12-01T00:54:45.466Z,10.60
2022-12-01T00:57:13.562Z,9.13
2022-12-01T00:59:41.520Z,8.73
2022-12-01T01:02:09.524Z,9.27
2022-12-01T01:04:38.822Z,9.60
2022-12-01T01:07:06.789Z,9.50
2022-12-01T01:09:34.698Z,9.57
2022-12-01T01:12:02.676Z,8.97
2022-12-01T01:14:30.621Z,9.17
2022-12-01T01:16:58.593Z,10.53
2022-12-01T01:19:26.603Z,11.23
2022-12-01T01:21:55.945Z,11.50
2022-12-01T01:24:23.859Z,10.40
2022-12-01T01:26:52.000Z,11.67
2022-12-01T01:29:19.904Z,11.00
2022-12-01T01:31:47.977Z,10.67
2022-12-01T01:34:15.878Z,9.93
2022-12-01T01:36:43.837Z,9.97
2022-12-01T01:39:13.152Z,10.83
2022-12-01T01:41:41.100Z,10.67
2022-12-01T01:44:42.235Z,10.57
2022-12-01T01:47:10.190Z,10.33
2022-12-01T01:49:38.110Z,10.53
2022-12-01T01:52:06.018Z,10.90
2022-12-01T01:54:37.250Z,10.17
2022-12-01T01:57:05.331Z,10.27
2022-12-01T01:59:34.434Z,10.50
2022-12-01T02:02:06.244Z,10.47
2022-12-01T02:04:34.268Z,10.47
2022-12-01T02:07:02.426Z,9.83
2022-12-01T02:09:30.358Z,10.40
2022-12-01T02:12:04.854Z,10.57
2022-12-01T02:14:43.675Z,10.17
2022-12-01T02:17:17.073Z,10.63
2022-12-01T02:19:55.054Z,9.20
2022-12-01T02:22:27.179Z,7.93
2022-12-01T02:25:24.362Z,7.83
2022-12-01T02:28:15.063Z,9.60
2022-12-01T02:30:45.160Z,9.10
2022-12-01T02:33:15.567Z,10.30
2022-12-01T02:35:46.251Z,8.90
2022-12-01T02:38:16.272Z,8.13
2022-12-01T02:40:46.860Z,8.97
2022-12-01T02:43:19.929Z,8.97
2022-12-01T02:45:50.505Z,9.80
2022-12-01T02:48:21.563Z,10.47
2022-12-01T02:50:49.616Z,11.23
2022-12-01T02:53:18.747Z,12.47
2022-12-01T02:55:50.724Z,11.20
2022-12-01T02:58:18.667Z,12.50
2022-12-01T03:00:54.879Z,12.20
2022-12-01T03:03:36.303Z,11.60
2022-12-01T03:06:08.519Z,11.43
2022-12-01T03:08:45.947Z,11.07
2022-12-01T03:11:27.292Z,10.97
2022-12-01T03:14:00.629Z,11.27
2022-12-01T03:16:32.655Z,11.37
2022-12-01T03:19:01.631Z,10.20
2022-12-01T03:21:31.686Z,10.07
2022-12-01T03:24:01.135Z,9.73
2022-12-01T03:26:30.774Z,10.23
2022-12-01T03:29:01.190Z,10.13
2022-12-01T03:31:32.233Z,11.00
2022-12-01T03:34:02.020Z,11.37
2022-12-01T03:36:31.031Z,10.87
2022-12-01T03:39:01.260Z,10.80
2022-12-01T03:41:31.008Z,10.30
2022-12-01T03:44:02.989Z,10.50
2022-12-01T03:46:38.112Z,9.60
2022-12-01T03:49:08.884Z,9.80
2022-12-01T03:51:43.339Z,9.97
2022-12-01T03:54:13.491Z,9.63
2022-12-01T03:56:44.412Z,8.93
2022-12-01T03:59:12.349Z,8.90
2022-12-01T04:01:41.633Z,10.27
2022-12-01T04:04:11.477Z,9.87
2022-12-01T04:06:39.687Z,9.70
2022-12-01T04:09:07.638Z,10.40
2022-12-01T04:11:53.088Z,10.03
2022-12-01T04:14:21.186Z,10.13
2022-12-01T04:16:50.454Z,10.10
2022-12-01T04:19:18.416Z,9.57
2022-12-01T04:21:46.392Z,9.57
2022-12-01T04:24:14.599Z,9.77
2022-12-01T04:26:43.523Z,10.20
2022-12-01T04:29:11.770Z,9.90
2022-12-01T04:31:39.824Z,10.30
2022-12-01T04:34:09.302Z,12.00
2022-12-01T04:36:37.330Z,11.07
2022-12-01T04:39:05.506Z,10.77
2022-12-01T04:41:33.461Z,10.60
2022-12-01T04:44:01.387Z,9.50
2022-12-01T04:46:29.352Z,9.70
2022-12-01T04:48:57.363Z,9.23
2022-12-01T04:51:26.722Z,9.93
2022-12-01T04:53:54.647Z,10.17
2022-12-01T04:56:22.593Z,9.33
2022-12-01T04:58:50.535Z,9.93
2022-12-01T05:01:19.110Z,10.40
2022-12-01T05:03:49.396Z,9.37
2022-12-01T05:06:18.971Z,9.83
2022-12-01T05:08:48.554Z,9.03
2022-12-01T05:11:16.543Z,10.23
2022-12-01T05:13:46.037Z,9.80
2022-12-01T05:16:15.085Z,9.07
2022-12-01T05:18:43.186Z,9.20
2022-12-01T05:21:10.767Z,9.07
2022-12-01T05:23:38.941Z,10.07
2022-12-01T05:26:09.339Z,10.83
2022-12-01T05:28:37.258Z,10.73
2022-12-01T05:31:05.227Z,10.47
2022-12-01T05:33:33.158Z,9.70
2022-12-01T05:36:01.177Z,10.27
2022-12-01T05:38:29.120Z,9.43
2022-12-01T05:40:57.179Z,9.77
2022-12-01T05:43:29.441Z,8.53
2022-12-01T05:45:57.881Z,9.23
2022-12-01T05:48:25.851Z,10.23
2022-12-01T05:50:53.745Z,9.13
2022-12-01T05:53:21.732Z,9.27
2022-12-01T05:55:53.019Z,8.70
2022-12-01T05:58:20.927Z,8.87
2022-12-01T06:00:50.317Z,8.97
2022-12-01T06:03:18.198Z,8.33
2022-12-01T06:05:46.141Z,8.37
2022-12-01T06:08:14.048Z,8.60
2022-12-01T06:10:42.840Z,8.63
2022-12-01T06:13:11.633Z,8.27
2022-12-01T06:15:40.406Z,8.23
2022-12-01T06:18:09.941Z,8.17
2022-12-01T06:20:38.124Z,8.37
2022-12-01T06:23:06.070Z,9.13
2022-12-01T06:25:34.012Z,8.00
2022-12-01T06:28:02.683Z,8.40
2022-12-01T06:30:30.610Z,7.93
2022-12-01T06:32:59.399Z,8.70
2022-12-01T06:35:28.879Z,8.07
2022-12-01T06:37:56.838Z,8.40
2022-12-01T06:40:25.482Z,7.93
2022-12-01T06:42:53.457Z,7.53
2022-12-01T06:45:21.400Z,7.67
2022-12-01T06:47:53.893Z,6.77
2022-12-01T06:50:22.945Z,7.70
2022-12-01T06:52:52.881Z,7.73
2022-12-01T06:55:20.902Z,7.93
2022-12-01T06:57:49.845Z,8.10
2022-12-01T07:00:19.095Z,8.00
2022-12-01T07:02:47.645Z,7.47
2022-12-01T07:05:15.838Z,7.00
2022-12-01T07:07:46.879Z,6.97
2022-12-01T07:10:16.186Z,7.60
2022-12-01T07:12:44.187Z,7.23
2022-12-01T07:15:12.461Z,7.33
2022-12-01T07:17:40.430Z,7.60
2022-12-01T07:20:10.456Z,7.93
2022-12-01T07:22:38.856Z,12.07
2022-12-01T07:25:08.126Z,7.47
2022-12-01T07:27:39.018Z,8.07
2022-12-01T07:30:08.484Z,7.57
2022-12-01T07:32:37.031Z,6.97
2022-12-01T07:35:05.347Z,7.27
2022-12-01T07:37:33.506Z,7.97
2022-12-01T07:40:01.429Z,7.67
2022-12-01T07:42:29.328Z,7.20
2022-12-01T07:44:58.740Z,7.93
2022-12-01T07:47:26.679Z,8.07
2022-12-01T07:49:54.619Z,8.20
2022-12-01T07:52:22.614Z,7.27
2022-12-01T07:54:50.528Z,7.93
2022-12-01T07:57:19.583Z,7.00
2022-12-01T07:59:47.788Z,6.93
2022-12-01T08:02:17.434Z,7.67
2022-12-01T08:04:45.418Z,8.20
2022-12-01T08:07:13.398Z,8.17
2022-12-01T08:09:41.432Z,8.20
2022-12-01T08:12:10.371Z,8.97
2022-12-01T08:14:38.321Z,9.03
2022-12-01T08:17:06.217Z,8.73
2022-12-01T08:19:35.549Z,8.57
2022-12-01T08:22:03.504Z,8.73
2022-12-01T08:24:31.471Z,8.37
2022-12-01T08:26:59.411Z,8.37
2022-12-01T08:29:27.297Z,7.83
2022-12-01T08:31:55.245Z,9.43
2022-12-01T08:34:23.180Z,8.17
2022-12-01T08:36:52.506Z,8.93
2022-12-01T08:39:20.684Z,14.57
2022-12-01T08:41:48.854Z,9.13
2022-12-01T08:44:16.843Z,8.20
2022-12-01T08:46:45.176Z,12.23
2022-12-01T08:49:13.276Z,8.40
2022-12-01T08:51:41.248Z,8.40
2022-12-01T08:54:11.126Z,8.20
2022-12-01T08:56:40.643Z,8.70
2022-12-01T08:59:08.826Z,7.57
2022-12-01T09:01:51.800Z,7.53
2022-12-01T09:04:20.341Z,8.93
2022-12-01T09:06:49.067Z,7.97
2022-12-01T09:09:19.338Z,7.27
2022-12-01T09:11:47.302Z,7.50
2022-12-01T09:14:15.717Z,7.57
2022-12-01T09:16:44.134Z,8.33
2022-12-01T09:19:13.340Z,8.17
2022-12-01T09:21:42.759Z,7.93
2022-12-01T09:24:11.561Z,8.57
2022-12-01T09:26:40.905Z,8.43
2022-12-01T09:29:10.062Z,8.20
2022-12-01T09:31:38.155Z,8.00
2022-12-01T09:34:07.440Z,8.10
2022-12-01T09:36:36.694Z,7.47
2022-12-01T09:39:04.791Z,7.30
2022-12-01T09:41:34.022Z,8.27
2022-12-01T09:44:06.186Z,7.73
2022-12-01T09:46:36.607Z,7.63
2022-12-01T09:49:04.952Z,7.90
2022-12-01T09:51:34.915Z,7.87
2022-12-01T09:54:02.900Z,8.53
2022-12-01T09:56:32.194Z,8.00
2022-12-01T09:59:01.025Z,8.23
2022-12-01T10:01:33.024Z,8.53
2022-12-01T10:04:03.738Z,7.90
2022-12-01T10:06:37.407Z,8.27
2022-12-01T10:09:08.933Z,7.93
2022-12-01T10:11:38.057Z,8.27
2022-12-01T10:14:07.102Z,8.50
2022-12-01T10:16:38.575Z,8.60
2022-12-01T10:19:09.481Z,9.03
2022-12-01T10:21:44.149Z,9.80
2022-12-01T10:24:30.859Z,10.07
2022-12-01T10:27:02.343Z,11.00
2022-12-01T10:29:35.540Z,12.20
2022-12-01T10:32:06.622Z,12.37
2022-12-01T10:34:35.444Z,12.23
2022-12-01T10:37:03.350Z,12.37
2022-12-01T10:39:32.474Z,12.43
2022-12-01T10:42:07.152Z,10.70
2022-12-01T10:44:35.771Z,11.77
2022-12-01T10:47:05.202Z,11.00
2022-12-01T10:49:37.647Z,10.80
2022-12-01T10:52:05.590Z,10.87
2022-12-01T10:54:34.420Z,11.73
2022-12-01T10:57:02.353Z,10.70
2022-12-01T10:59:33.586Z,10.60
2022-12-01T11:02:02.228Z,9.93
2022-12-01T11:04:45.414Z,9.57
2022-12-01T11:07:17.701Z,9.50
2022-12-01T11:09:46.614Z,8.80
2022-12-01T11:12:16.346Z,8.63
2022-12-01T11:14:46.087Z,8.13
2022-12-01T11:17:27.330Z,7.60
2022-12-01T11:19:56.700Z,8.37
2022-12-01T11:22:25.646Z,7.90
2022-12-01T11:25:01.497Z,8.03
2022-12-01T11:27:31.535Z,8.00
2022-12-01T11:30:02.769Z,7.90
2022-12-01T11:32:31.443Z,8.23
2022-12-01T11:35:01.650Z,8.33
2022-12-01T11:37:32.719Z,7.83
2022-12-01T11:40:10.375Z,7.67
2022-12-01T11:42:40.299Z,7.93
2022-12-01T11:45:18.246Z,8.27
2022-12-01T11:47:59.977Z,7.90
2022-12-01T11:50:31.087Z,7.87
2022-12-01T11:52:59.075Z,7.70
2022-12-01T11:55:27.821Z,7.77
2022-12-01T11:57:56.775Z,8.27
2022-12-01T12:00:26.390Z,7.63
2022-12-01T12:03:16.270Z,7.63
2022-12-01T12:05:57.557Z,7.77
2022-12-01T12:08:36.063Z,7.40
2022-12-01T12:11:09.025Z,7.23
2022-12-01T12:14:09.212Z,7.20
2022-12-01T12:16:45.868Z,8.13
2022-12-01T12:19:33.793Z,8.50
2022-12-01T12:22:21.394Z,8.07
2022-12-01T12:24:56.472Z,11.80
2022-12-01T12:27:28.674Z,8.23
2022-12-01T12:30:07.677Z,8.20
2022-12-01T12:32:50.456Z,8.10
2022-12-01T12:35:26.334Z,8.03
2022-12-01T12:38:03.015Z,8.40
2022-12-01T12:40:37.763Z,8.83
2022-12-01T12:43:24.119Z,8.40
2022-12-01T12:45:59.208Z,8.87
2022-12-01T12:48:41.683Z,8.60
2022-12-01T12:51:20.068Z,8.47
2022-12-01T12:53:52.655Z,7.90
2022-12-01T12:56:21.952Z,8.20
2022-12-01T12:58:56.057Z,8.30
2022-12-01T13:01:25.329Z,8.30
2022-12-01T13:03:56.611Z,8.32
2022-12-01T13:06:26.828Z,7.63
2022-12-01T13:08:59.147Z,7.93
2022-12-01T13:11:28.763Z,7.97
2022-12-01T13:13:58.799Z,8.45
2022-12-01T13:16:28.079Z,7.43
2022-12-01T13:18:59.844Z,7.95
2022-12-01T13:21:37.968Z,8.45
2022-12-01T13:24:08.291Z,8.43
2022-12-01T13:26:35.945Z,8.07
2022-12-01T13:29:05.921Z,7.70
2022-12-01T13:31:42.798Z,7.78
2022-12-01T13:34:23.617Z,7.97
2022-12-01T13:36:52.382Z,7.97
2022-12-01T13:39:22.797Z,7.85
2022-12-01T13:42:05.008Z,7.75
2022-12-01T13:44:36.087Z,8.65
2022-12-01T13:47:05.199Z,8.15
2022-12-01T13:49:39.918Z,7.82
2022-12-01T13:52:18.906Z,7.40
2022-12-01T13:55:03.402Z,7.68
2022-12-01T13:57:32.344Z,8.75
2022-12-01T14:00:23.511Z,8.00
2022-12-01T14:03:24.943Z,9.37
2022-12-01T14:05:57.088Z,7.97
2022-12-01T14:08:25.738Z,10.23
2022-12-01T14:10:56.269Z,7.93
2022-12-01T14:13:24.198Z,8.33
2022-12-01T14:15:55.568Z,9.33
2022-12-01T14:18:28.970Z,9.47
2022-12-01T14:20:56.920Z,6.80
2022-12-01T14:23:29.085Z,5.67
2022-12-01T14:26:17.979Z,6.57
2022-12-01T14:29:31.743Z,6.10
2022-12-01T14:32:26.507Z,5.77
2022-12-01T14:34:56.416Z,5.47
2022-12-01T14:37:26.129Z,5.43
2022-12-01T14:39:58.192Z,5.40
2022-12-01T14:42:48.894Z,5.60
2022-12-01T14:45:19.941Z,5.03
2022-12-01T14:47:50.998Z,5.37
2022-12-01T14:50:24.924Z,5.70
2022-12-01T14:52:54.752Z,6.07
2022-12-01T14:55:23.997Z,7.03
2022-12-01T14:57:54.562Z,7.03
2022-12-01T15:00:23.653Z,6.60
2022-12-01T15:02:55.082Z,7.00
2022-12-01T15:05:25.238Z,5.97
2022-12-01T15:07:58.853Z,6.83
2022-12-01T15:10:34.792Z,7.83
2022-12-01T15:13:18.181Z,7.27
2022-12-01T15:15:51.210Z,7.67
2022-12-01T15:18:22.828Z,9.47
2022-12-01T15:20:51.346Z,13.70
2022-12-01T15:23:19.267Z,13.70
2022-12-01T15:25:47.419Z,8.90
2022-12-01T15:28:18.702Z,7.93
2022-12-01T15:30:48.497Z,10.80
2022-12-01T15:33:25.500Z,9.87
2022-12-01T15:35:55.152Z,9.70
2022-12-01T15:38:24.875Z,7.60
2022-12-01T15:41:27.857Z,8.23
2022-12-01T15:43:42.159Z,9.47
2022-12-01T15:46:14.179Z,9.90
2022-12-01T15:48:42.164Z,9.83
2022-12-01T15:51:12.197Z,9.23
2022-12-01T15:53:42.751Z,9.67
2022-12-01T15:56:14.748Z,10.23
2022-12-01T15:58:45.108Z,10.37
2022-12-01T16:01:13.907Z,10.33
2022-12-01T16:03:53.451Z,15.23
2022-12-01T16:06:22.089Z,20.73
2022-12-01T16:08:56.280Z,22.33
2022-12-01T16:11:24.317Z,12.50
2022-12-01T16:14:00.878Z,10.13
2022-12-01T16:16:35.690Z,8.93
2022-12-01T16:19:05.696Z,8.43
2022-12-01T16:21:36.001Z,7.30
2022-12-01T16:24:05.130Z,6.27
2022-12-01T16:26:33.520Z,6.97
2022-12-01T16:29:02.864Z,6.57
2022-12-01T16:31:30.850Z,6.83
2022-12-01T16:34:13.935Z,7.63
2022-12-01T16:36:50.645Z,7.00
2022-12-01T16:39:18.935Z,7.57
2022-12-01T16:41:48.016Z,6.97
2022-12-01T16:44:32.637Z,7.17
2022-12-01T16:47:00.737Z,7.47
2022-12-01T16:49:28.684Z,8.20
2022-12-01T16:51:57.540Z,7.50
2022-12-01T16:54:28.377Z,7.90
2022-12-01T16:56:56.293Z,8.27
2022-12-01T16:59:25.627Z,8.17
2022-12-01T17:01:53.677Z,8.23
2022-12-01T17:04:21.702Z,8.53
2022-12-01T17:06:49.778Z,8.07
2022-12-01T17:09:17.730Z,8.70
2022-12-01T17:11:45.748Z,8.47
2022-12-01T17:14:13.673Z,9.00
2022-12-01T17:16:42.955Z,8.73
2022-12-01T17:19:10.873Z,9.33
2022-12-01T17:21:38.801Z,10.27
2022-12-01T17:24:07.440Z,9.77
2022-12-01T17:26:35.590Z,9.90
2022-12-01T17:29:03.489Z,10.17
2022-12-01T17:31:31.457Z,10.53
2022-12-01T17:34:00.815Z,11.13
2022-12-01T17:36:28.770Z,11.30
2022-12-01T17:38:58.662Z,11.33
2022-12-01T17:41:32.256Z,11.30
2022-12-01T17:44:00.199Z,12.23
2022-12-01T17:46:28.209Z,13.23
2022-12-01T17:48:56.240Z,12.27
2022-12-01T17:51:25.511Z,11.20
2022-12-01T17:53:54.123Z,12.00
2022-12-01T17:56:22.040Z,11.77
2022-12-01T17:58:50.567Z,11.63
2022-12-01T18:01:19.497Z,13.17
2022-12-01T18:03:47.529Z,16.57
2022-12-01T18:06:15.540Z,16.70
2022-12-01T18:08:44.950Z,14.60
2022-12-01T18:11:16.038Z,15.50
2022-12-01T18:13:44.919Z,14.83
2022-12-01T18:16:14.514Z,14.33
2022-12-01T18:18:42.628Z,14.80
2022-12-01T18:21:11.453Z,16.07
2022-12-01T18:23:39.384Z,16.30
2022-12-01T18:26:15.135Z,16.00
2022-12-01T18:28:43.607Z,16.00
2022-12-01T18:31:12.709Z,14.30
2022-12-01T18:33:41.450Z,14.87
2022-12-01T18:36:11.099Z,15.27
2022-12-01T18:38:39.177Z,16.33
2022-12-01T18:41:08.675Z,14.67
2022-12-01T18:43:37.481Z,15.27
2022-12-01T18:46:05.834Z,15.30
2022-12-01T18:48:33.854Z,14.47
2022-12-01T18:51:03.740Z,14.63
2022-12-01T18:53:31.745Z,15.13
2022-12-01T18:56:02.456Z,14.00
2022-12-01T18:58:31.880Z,16.67
2022-12-01T19:01:00.215Z,16.47
2022-12-01T19:03:30.026Z,17.40
2022-12-01T19:05:57.938Z,14.23
2022-12-01T19:08:25.880Z,14.97
2022-12-01T19:10:59.533Z,15.47
2022-12-01T19:13:27.458Z,20.87
2022-12-01T19:15:56.817Z,20.47
2022-12-01T19:18:24.785Z,14.30
2022-12-01T19:20:52.776Z,13.70
2022-12-01T19:23:20.800Z,14.40
2022-12-01T19:25:48.714Z,12.90
2022-12-01T19:28:16.717Z,11.80
2022-12-01T19:30:48.234Z,12.57
2022-12-01T19:33:17.844Z,13.73
2022-12-01T19:35:45.867Z,15.00
2022-12-01T19:38:14.202Z,16.23
2022-12-01T19:40:42.586Z,16.30
2022-12-01T19:43:10.493Z,16.60
2022-12-01T19:45:38.945Z,15.13
2022-12-01T19:48:07.433Z,14.60
2022-12-01T19:50:37.138Z,15.40
2022-12-01T19:53:05.111Z,16.90
2022-12-01T19:55:33.025Z,15.70
2022-12-01T19:58:00.935Z,14.60
2022-12-01T20:00:28.961Z,15.80
2022-12-01T20:02:57.812Z,15.87
2022-12-01T20:05:25.791Z,16.77
2022-12-01T20:07:55.119Z,18.57
2022-12-01T20:10:23.156Z,17.37
2022-12-01T20:12:51.553Z,19.17
2022-12-01T20:15:19.483Z,17.87
2022-12-01T20:17:47.695Z,17.90
2022-12-01T20:20:16.440Z,17.87
2022-12-01T20:22:44.390Z,18.23
2022-12-01T20:25:14.052Z,19.40
2022-12-01T20:27:42.539Z,19.23
2022-12-01T20:30:11.647Z,21.47
2022-12-01T20:32:39.768Z,22.63
2022-12-01T20:35:08.253Z,22.80
2022-12-01T20:37:36.220Z,20.63
2022-12-01T20:40:04.185Z,19.10
2022-12-01T20:42:33.555Z,16.40
2022-12-01T20:45:01.524Z,12.50
2022-12-01T20:47:30.688Z,11.70
2022-12-01T20:49:58.690Z,12.27
2022-12-01T20:52:26.638Z,12.50
2022-12-01T20:54:54.654Z,12.50
2022-12-01T20:57:22.554Z,13.67
2022-12-01T20:59:51.934Z,13.10
2022-12-01T21:02:19.952Z,12.73
2022-12-01T21:04:48.174Z,15.03
2022-12-01T21:07:16.281Z,15.53
2022-12-01T21:09:44.191Z,14.50
2022-12-01T21:12:31.224Z,14.23
2022-12-01T21:15:03.960Z,14.33
2022-12-01T21:17:34.429Z,13.80
2022-12-01T21:20:07.069Z,13.07
2022-12-01T21:22:35.020Z,12.10
2022-12-01T21:25:08.544Z,12.73
2022-12-01T21:27:36.546Z,9.70
2022-12-01T21:30:10.692Z,10.53
2022-12-01T21:32:44.034Z,9.77
2022-12-01T21:35:16.910Z,10.77
2022-12-01T21:37:44.955Z,10.37
2022-12-01T21:40:17.420Z,10.47
2022-12-01T21:42:45.347Z,11.57
2022-12-01T21:45:20.830Z,12.83
2022-12-01T21:47:48.746Z,11.97
2022-12-01T21:50:18.015Z,13.00
2022-12-01T21:52:46.019Z,11.03
2022-12-01T21:55:32.921Z,11.00
2022-12-01T21:58:00.869Z,9.60
2022-12-01T22:00:31.496Z,8.83
2022-12-01T22:03:21.076Z,8.07
2022-12-01T22:06:13.511Z,7.63
2022-12-01T22:08:39.084Z,7.53
2022-12-01T22:11:11.593Z,7.90
2022-12-01T22:13:41.598Z,9.23
2022-12-01T22:16:19.409Z,8.07
2022-12-01T22:18:48.877Z,7.67
2022-12-01T22:21:32.914Z,7.60
2022-12-01T22:24:24.278Z,7.30
2022-12-01T22:26:54.637Z,6.83
2022-12-01T22:29:27.646Z,6.87
2022-12-01T22:32:25.317Z,6.47
2022-12-01T22:34:54.820Z,6.70
2022-12-01T22:37:23.545Z,6.50
2022-12-01T22:39:52.962Z,6.90
2022-12-01T22:42:21.905Z,6.90
2022-12-01T22:44:50.032Z,6.87
2022-12-01T22:47:19.505Z,7.33
2022-12-01T22:49:47.442Z,7.70
2022-12-01T22:52:19.676Z,8.23
2022-12-01T22:54:49.143Z,7.77
2022-12-01T22:57:27.004Z,6.60
2022-12-01T22:59:54.988Z,6.97
2022-12-01T23:02:25.247Z,6.80
2022-12-01T23:04:54.638Z,8.07
2022-12-01T23:07:33.701Z,6.80
2022-12-01T23:10:12.458Z,6.87
2022-12-01T23:12:40.401Z,6.13
2022-12-01T23:15:28.253Z,6.00
2022-12-01T23:17:57.575Z,6.87
2022-12-01T23:20:31.167Z,7.03
2022-12-01T23:23:00.252Z,7.73
2022-12-01T23:25:28.531Z,7.23
2022-12-01T23:27:57.416Z,5.90
2022-12-01T23:30:25.362Z,6.47
2022-12-01T23:33:11.322Z,8.30
2022-12-01T23:35:40.991Z,20.03
2022-12-01T23:38:11.825Z,28.63
2022-12-01T23:40:39.785Z,19.20
2022-12-01T23:43:13.061Z,15.33
2022-12-01T23:45:40.954Z,20.73
2022-12-01T23:48:11.359Z,16.90
2022-12-01T23:50:39.282Z,8.90
2022-12-01T23:53:07.171Z,5.30
2022-12-01T23:55:35.103Z,5.67
2022-12-01T23:58:14.521Z,5.60
